createdAt,value
2019-02-14T00:01:14.848Z,9.60
2019-02-14T00:03:44.961Z,10.33
2019-02-14T00:06:15.266Z,9.13
2019-02-14T00:08:45.705Z,9.50
2019-02-14T00:11:15.981Z,9.70
2019-02-14T00:13:46.148Z,8.90
2019-02-14T00:16:16.521Z,9.63
2019-02-14T00:18:46.694Z,8.57
2019-02-14T00:21:16.860Z,8.40
2019-02-14T00:23:47.122Z,8.50
2019-02-14T00:26:17.234Z,8.47
2019-02-14T00:28:47.288Z,7.63
2019-02-14T00:31:17.422Z,7.80
2019-02-14T00:33:47.609Z,7.50
2019-02-14T00:36:17.723Z,8.17
2019-02-14T00:38:52.064Z,8.50
2019-02-14T00:41:22.266Z,7.90
2019-02-14T00:43:52.462Z,7.90
2019-02-14T00:46:22.530Z,7.53
2019-02-14T00:48:52.679Z,8.47
2019-02-14T00:51:22.737Z,8.33
2019-02-14T00:53:52.929Z,8.30
2019-02-14T00:56:23.057Z,8.50
2019-02-14T00:58:53.298Z,7.87
2019-02-14T01:01:23.419Z,8.30
2019-02-14T01:03:53.685Z,8.40
2019-02-14T01:06:23.894Z,7.77
2019-02-14T01:08:54.100Z,7.47
2019-02-14T01:11:24.373Z,7.57
2019-02-14T01:13:54.597Z,8.07
2019-02-14T01:16:24.881Z,7.40
2019-02-14T01:18:55.018Z,8.00
2019-02-14T01:21:25.090Z,7.27
2019-02-14T01:23:55.275Z,8.03
2019-02-14T01:26:25.513Z,7.60
2019-02-14T01:28:55.718Z,7.20
2019-02-14T01:31:25.838Z,7.70
2019-02-14T01:33:56.127Z,7.57
2019-02-14T01:36:26.345Z,7.03
2019-02-14T01:38:56.665Z,8.37
2019-02-14T01:41:26.793Z,7.20
2019-02-14T01:43:57.114Z,7.10
2019-02-14T01:46:27.209Z,7.50
2019-02-14T01:48:57.297Z,7.33
2019-02-14T01:51:28.357Z,6.87
2019-02-14T01:53:58.481Z,7.90
2019-02-14T01:56:28.602Z,7.83
2019-02-14T01:58:58.744Z,7.20
2019-02-14T02:01:29.254Z,7.83
2019-02-14T02:04:00.392Z,7.67
2019-02-14T02:06:30.555Z,7.67
2019-02-14T02:09:00.891Z,7.90
2019-02-14T02:11:33.008Z,7.07
2019-02-14T02:14:03.214Z,7.43
2019-02-14T02:16:33.440Z,7.37
2019-02-14T02:19:03.692Z,7.43
2019-02-14T02:21:34.070Z,6.23
2019-02-14T02:24:04.421Z,7.33
2019-02-14T02:26:34.684Z,7.80
2019-02-14T02:29:04.833Z,7.53
2019-02-14T02:31:35.943Z,6.90
2019-02-14T02:34:06.149Z,7.47
2019-02-14T02:36:36.249Z,7.67
2019-02-14T02:39:07.957Z,7.83
2019-02-14T02:41:38.254Z,6.80
2019-02-14T02:44:09.117Z,7.27
2019-02-14T02:46:40.362Z,7.97
2019-02-14T02:49:10.403Z,7.53
2019-02-14T02:51:40.732Z,7.20
2019-02-14T02:54:10.910Z,7.37
2019-02-14T02:56:40.967Z,7.87
2019-02-14T02:59:11.005Z,7.87
2019-02-14T03:01:41.058Z,7.80
2019-02-14T03:04:11.316Z,8.33
2019-02-14T03:06:41.606Z,7.27
2019-02-14T03:09:11.821Z,7.70
2019-02-14T03:11:41.965Z,7.80
2019-02-14T03:14:12.121Z,7.80
2019-02-14T03:16:42.384Z,7.63
2019-02-14T03:19:12.697Z,7.43
2019-02-14T03:21:42.969Z,7.87
2019-02-14T03:24:13.097Z,7.03
2019-02-14T03:26:43.356Z,7.83
2019-02-14T03:29:13.589Z,7.43
2019-02-14T03:31:43.976Z,8.77
2019-02-14T03:34:14.144Z,8.13
2019-02-14T03:36:44.186Z,7.60
2019-02-14T03:39:14.374Z,8.30
2019-02-14T03:41:44.486Z,9.13
2019-02-14T03:44:14.611Z,7.97
2019-02-14T03:46:44.795Z,8.00
2019-02-14T03:49:16.047Z,8.17
2019-02-14T03:51:46.256Z,7.37
2019-02-14T03:54:16.474Z,7.50
2019-02-14T03:56:46.697Z,7.97
2019-02-14T03:59:17.116Z,6.90
2019-02-14T04:01:47.244Z,6.80
2019-02-14T04:04:17.433Z,7.17
2019-02-14T04:06:47.679Z,7.37
2019-02-14T04:09:18.133Z,6.83
2019-02-14T04:11:48.310Z,6.93
2019-02-14T04:14:18.680Z,6.87
2019-02-14T04:16:48.969Z,7.30
2019-02-14T04:19:19.381Z,7.27
2019-02-14T04:21:49.558Z,7.90
2019-02-14T04:24:19.667Z,7.03
2019-02-14T04:26:51.734Z,7.37
2019-02-14T04:29:21.951Z,7.20
2019-02-14T04:31:52.052Z,8.10
2019-02-14T04:34:22.268Z,7.53
2019-02-14T04:36:52.389Z,7.90
2019-02-14T04:39:22.514Z,7.90
2019-02-14T04:41:52.754Z,8.53
2019-02-14T04:44:22.935Z,9.20
2019-02-14T04:46:53.065Z,7.73
2019-02-14T04:49:23.234Z,7.30
2019-02-14T04:51:53.299Z,7.80
2019-02-14T04:54:23.506Z,7.60
2019-02-14T04:56:53.561Z,7.97
2019-02-14T04:59:23.942Z,8.27
2019-02-14T05:01:54.085Z,9.57
2019-02-14T05:04:24.211Z,10.47
2019-02-14T05:06:54.421Z,9.93
2019-02-14T05:09:24.522Z,8.10
2019-02-14T05:11:54.646Z,8.53
2019-02-14T05:14:24.793Z,7.83
2019-02-14T05:16:55.237Z,9.10
2019-02-14T05:19:25.390Z,8.53
2019-02-14T05:21:56.730Z,8.43
2019-02-14T05:24:26.852Z,8.93
2019-02-14T05:26:57.003Z,8.77
2019-02-14T05:29:27.165Z,9.63
2019-02-14T05:31:57.230Z,10.40
2019-02-14T05:34:27.350Z,9.70
2019-02-14T05:36:57.566Z,10.33
2019-02-14T05:39:27.649Z,9.87
2019-02-14T05:41:57.901Z,9.37
2019-02-14T05:44:28.081Z,9.00
2019-02-14T05:46:58.259Z,9.60
2019-02-14T05:49:28.350Z,9.13
2019-02-14T05:51:58.449Z,9.10
2019-02-14T05:54:28.731Z,9.53
2019-02-14T05:56:58.945Z,9.23
2019-02-14T05:59:28.997Z,8.83
2019-02-14T06:01:59.177Z,9.20
2019-02-14T06:04:29.262Z,8.40
2019-02-14T06:07:01.175Z,8.67
2019-02-14T06:09:32.367Z,9.63
2019-02-14T06:12:02.515Z,9.00
2019-02-14T06:14:32.677Z,8.73
2019-02-14T06:17:02.810Z,8.63
2019-02-14T06:19:33.055Z,9.10
2019-02-14T06:22:03.242Z,9.10
2019-02-14T06:24:33.478Z,9.87
2019-02-14T06:27:03.618Z,10.33
2019-02-14T06:29:33.727Z,10.80
2019-02-14T06:32:03.810Z,10.00
2019-02-14T06:34:33.917Z,10.73
2019-02-14T06:37:09.461Z,9.73
2019-02-14T06:39:35.885Z,10.10
2019-02-14T06:42:05.945Z,10.57
2019-02-14T06:44:36.249Z,10.90
2019-02-14T06:47:06.341Z,11.53
2019-02-14T06:49:36.385Z,11.77
2019-02-14T06:52:06.663Z,12.53
2019-02-14T06:54:36.757Z,11.80
2019-02-14T06:57:07.041Z,11.00
2019-02-14T06:59:37.172Z,10.97
2019-02-14T07:02:07.343Z,10.80
2019-02-14T07:04:37.406Z,10.70
2019-02-14T07:07:07.483Z,10.67
2019-02-14T07:09:37.734Z,10.87
2019-02-14T07:12:07.839Z,9.70
2019-02-14T07:14:37.971Z,11.50
2019-02-14T07:17:08.114Z,9.90
2019-02-14T07:19:38.333Z,9.57
2019-02-14T07:22:08.628Z,8.87
2019-02-14T07:24:38.758Z,8.97
2019-02-14T07:27:08.935Z,8.30
2019-02-14T07:29:38.997Z,9.13
2019-02-14T07:32:09.199Z,9.97
2019-02-14T07:34:39.323Z,9.07
2019-02-14T07:37:09.453Z,9.33
2019-02-14T07:39:39.586Z,9.13
2019-02-14T07:42:10.681Z,8.13
2019-02-14T07:44:40.825Z,8.70
2019-02-14T07:47:10.934Z,8.73
2019-02-14T07:49:41.074Z,8.30
2019-02-14T07:52:11.211Z,9.67
2019-02-14T07:54:41.528Z,10.47
2019-02-14T07:57:11.793Z,10.13
2019-02-14T07:59:41.997Z,10.13
2019-02-14T08:02:12.125Z,11.23
2019-02-14T08:04:43.283Z,10.40
2019-02-14T08:07:13.342Z,10.83
2019-02-14T08:09:43.585Z,10.27
2019-02-14T08:12:13.754Z,10.37
2019-02-14T08:14:44.020Z,10.67
2019-02-14T08:17:14.145Z,11.40
2019-02-14T08:19:44.282Z,12.60
2019-02-14T08:22:14.443Z,12.17
2019-02-14T08:24:44.926Z,12.60
2019-02-14T08:27:15.233Z,14.27
2019-02-14T08:29:45.446Z,11.63
2019-02-14T08:32:15.633Z,11.40
2019-02-14T08:34:45.829Z,11.90
2019-02-14T08:37:16.014Z,10.30
2019-02-14T08:39:46.054Z,11.10
2019-02-14T08:42:16.164Z,12.17
2019-02-14T08:44:46.419Z,11.43
2019-02-14T08:47:16.541Z,15.03
2019-02-14T08:49:46.719Z,15.67
2019-02-14T08:52:17.077Z,10.80
2019-02-14T08:54:47.205Z,10.40
2019-02-14T08:57:17.425Z,10.77
2019-02-14T08:59:47.562Z,11.43
2019-02-14T09:02:18.681Z,11.23
2019-02-14T09:04:48.774Z,12.87
2019-02-14T09:07:19.287Z,13.20
2019-02-14T09:09:49.408Z,11.43
2019-02-14T09:12:19.663Z,11.70
2019-02-14T09:14:49.766Z,11.60
2019-02-14T09:17:19.929Z,11.63
2019-02-14T09:19:50.062Z,21.03
2019-02-14T09:22:20.218Z,16.47
2019-02-14T09:24:50.576Z,15.23
2019-02-14T09:27:20.714Z,11.90
2019-02-14T09:29:50.995Z,11.90
2019-02-14T09:32:24.976Z,9.80
2019-02-14T09:34:55.071Z,8.80
2019-02-14T09:37:25.217Z,8.33
2019-02-14T09:39:55.582Z,9.47
2019-02-14T09:42:25.643Z,9.50
2019-02-14T09:44:55.951Z,9.53
2019-02-14T09:47:27.046Z,8.67
2019-02-14T09:49:57.232Z,8.70
2019-02-14T09:52:27.420Z,12.43
2019-02-14T09:54:57.559Z,9.67
2019-02-14T09:57:27.694Z,11.93
2019-02-14T09:59:57.795Z,10.27
2019-02-14T10:02:27.911Z,10.17
2019-02-14T10:04:58.371Z,8.63
2019-02-14T10:07:28.514Z,9.93
2019-02-14T10:09:58.702Z,9.80
2019-02-14T10:12:28.950Z,10.33
2019-02-14T10:14:59.070Z,10.33
2019-02-14T10:17:29.106Z,9.27
2019-02-14T10:19:59.200Z,9.83
2019-02-14T10:22:29.534Z,9.90
2019-02-14T10:24:59.634Z,9.33
2019-02-14T10:27:29.886Z,10.23
2019-02-14T10:29:59.995Z,10.53
2019-02-14T10:32:30.410Z,10.77
2019-02-14T10:35:00.485Z,9.27
2019-02-14T10:37:30.634Z,9.77
2019-02-14T10:40:01.079Z,10.00
2019-02-14T10:42:31.126Z,11.70
2019-02-14T10:45:01.441Z,11.53
2019-02-14T10:47:31.610Z,12.80
2019-02-14T10:50:01.800Z,15.17
2019-02-14T10:52:32.229Z,20.60
2019-02-14T10:55:02.369Z,12.73
2019-02-14T10:57:32.695Z,11.50
2019-02-14T11:00:04.063Z,10.43
2019-02-14T11:02:36.045Z,9.77
2019-02-14T11:05:06.221Z,9.93
2019-02-14T11:07:36.376Z,10.53
2019-02-14T11:10:06.833Z,9.47
2019-02-14T11:12:36.858Z,8.30
2019-02-14T11:15:09.115Z,8.23
2019-02-14T11:17:39.504Z,8.87
2019-02-14T11:20:11.308Z,8.20
2019-02-14T11:22:41.515Z,9.23
2019-02-14T11:25:14.386Z,10.07
2019-02-14T11:27:44.648Z,9.23
2019-02-14T11:30:14.968Z,8.03
2019-02-14T11:32:45.115Z,7.70
2019-02-14T11:35:15.150Z,7.90
2019-02-14T11:37:45.417Z,8.00
2019-02-14T11:40:15.709Z,8.30
2019-02-14T11:42:45.738Z,8.10
2019-02-14T11:45:16.986Z,7.90
2019-02-14T11:47:47.159Z,7.67
2019-02-14T11:50:17.273Z,8.17
2019-02-14T11:52:47.385Z,7.87
2019-02-14T11:55:17.716Z,8.27
2019-02-14T11:57:47.787Z,7.70
2019-02-14T12:00:20.906Z,7.33
2019-02-14T12:02:55.563Z,7.53
2019-02-14T12:05:22.966Z,7.63
2019-02-14T12:07:53.179Z,7.83
2019-02-14T12:10:23.266Z,7.83
2019-02-14T12:12:53.584Z,7.93
2019-02-14T12:15:23.815Z,8.10
2019-02-14T12:17:53.896Z,7.83
2019-02-14T12:20:24.161Z,7.70
2019-02-14T12:22:54.185Z,8.10
2019-02-14T12:25:24.390Z,8.33
2019-02-14T12:27:54.502Z,7.90
2019-02-14T12:30:24.691Z,8.60
2019-02-14T12:32:54.917Z,9.03
2019-02-14T12:35:25.039Z,11.07
2019-02-14T12:37:55.397Z,7.27
2019-02-14T12:40:25.576Z,8.67
2019-02-14T12:42:55.719Z,8.50
2019-02-14T12:45:26.251Z,6.60
2019-02-14T12:47:56.543Z,7.33
2019-02-14T12:50:26.947Z,7.33
2019-02-14T12:52:57.134Z,8.23
2019-02-14T12:55:27.240Z,7.10
2019-02-14T12:57:57.458Z,7.57
2019-02-14T13:00:28.002Z,6.90
2019-02-14T13:02:58.159Z,7.07
2019-02-14T13:05:28.398Z,6.97
2019-02-14T13:07:58.678Z,7.17
2019-02-14T13:10:28.900Z,5.97
2019-02-14T13:12:59.170Z,5.87
2019-02-14T13:15:29.301Z,8.80
2019-02-14T13:18:02.627Z,7.13
2019-02-14T13:20:34.438Z,7.10
2019-02-14T13:23:06.071Z,6.60
2019-02-14T13:25:40.249Z,6.43
2019-02-14T13:28:10.431Z,5.90
2019-02-14T13:30:40.750Z,6.00
2019-02-14T13:33:11.032Z,6.37
2019-02-14T13:35:41.323Z,6.73
2019-02-14T13:38:11.573Z,6.60
2019-02-14T13:40:41.790Z,6.53
2019-02-14T13:43:11.855Z,6.27
2019-02-14T13:45:42.277Z,8.03
2019-02-14T13:48:12.498Z,7.37
2019-02-14T13:50:42.685Z,6.57
2019-02-14T13:53:12.862Z,6.80
2019-02-14T13:55:42.982Z,6.50
2019-02-14T13:58:13.200Z,6.37
2019-02-14T14:00:43.717Z,16.37
2019-02-14T14:03:13.861Z,8.33
2019-02-14T14:05:44.130Z,8.37
2019-02-14T14:08:14.511Z,8.83
2019-02-14T14:10:44.710Z,8.47
2019-02-14T14:13:14.889Z,7.53
2019-02-14T14:15:45.396Z,7.03
2019-02-14T14:18:15.841Z,7.17
2019-02-14T14:20:45.926Z,7.87
2019-02-14T14:23:16.314Z,7.63
2019-02-14T14:25:46.470Z,7.20
2019-02-14T14:28:16.627Z,7.60
2019-02-14T14:30:46.763Z,7.27
2019-02-14T14:33:16.970Z,10.50
2019-02-14T14:35:47.302Z,7.37
2019-02-14T14:38:17.427Z,8.00
2019-02-14T14:40:47.686Z,19.47
2019-02-14T14:43:25.390Z,10.03
2019-02-14T14:46:29.490Z,9.33
2019-02-14T14:48:59.627Z,9.70
2019-02-14T14:51:29.886Z,8.77
2019-02-14T14:54:00.238Z,9.10
2019-02-14T14:56:30.429Z,9.60
2019-02-14T14:59:00.474Z,10.10
2019-02-14T15:01:30.785Z,10.67
2019-02-14T15:04:00.977Z,12.07
2019-02-14T15:06:31.005Z,13.33
2019-02-14T15:09:01.286Z,16.57
2019-02-14T15:11:32.991Z,14.30
2019-02-14T15:14:03.162Z,20.60
2019-02-14T15:16:33.606Z,18.27
2019-02-14T15:19:03.924Z,16.90
2019-02-14T15:21:33.990Z,17.83
2019-02-14T15:24:04.207Z,16.53
2019-02-14T15:26:34.442Z,14.60
2019-02-14T15:29:04.570Z,15.70
2019-02-14T15:31:34.705Z,16.43
2019-02-14T15:34:04.819Z,18.30
2019-02-14T15:36:34.958Z,17.03
2019-02-14T15:39:06.562Z,18.37
2019-02-14T15:41:36.757Z,18.10
2019-02-14T15:44:06.958Z,17.97
2019-02-14T15:46:37.125Z,17.30
2019-02-14T15:49:07.239Z,19.00
2019-02-14T15:51:39.139Z,17.30
2019-02-14T15:54:11.353Z,15.73
2019-02-14T15:56:41.531Z,15.40
2019-02-14T15:59:11.691Z,15.13
2019-02-14T16:01:44.182Z,16.93
2019-02-14T16:04:13.594Z,21.17
2019-02-14T16:06:43.653Z,23.67
2019-02-14T16:09:14.444Z,24.70
2019-02-14T16:11:45.614Z,26.13
2019-02-14T16:14:18.165Z,24.97
2019-02-14T16:16:47.613Z,26.80
2019-02-14T16:19:17.872Z,27.23
2019-02-14T16:21:47.934Z,26.43
2019-02-14T16:24:18.581Z,26.97
2019-02-14T16:26:48.812Z,24.00
2019-02-14T16:29:18.857Z,37.67
2019-02-14T16:31:49.092Z,42.40
2019-02-14T16:34:19.220Z,31.63
2019-02-14T16:36:49.593Z,32.70
2019-02-14T16:39:20.798Z,22.43
2019-02-14T16:41:51.598Z,23.10
2019-02-14T16:44:21.678Z,25.33
2019-02-14T16:46:51.915Z,24.93
2019-02-14T16:49:22.078Z,24.50
2019-02-14T16:51:52.235Z,23.77
2019-02-14T16:54:22.538Z,27.60
2019-02-14T16:56:52.701Z,24.77
2019-02-14T16:59:22.864Z,25.90
2019-02-14T17:01:53.171Z,28.33
2019-02-14T17:04:23.425Z,28.83
2019-02-14T17:06:53.714Z,29.77
2019-02-14T17:09:23.898Z,30.97
2019-02-14T17:11:54.006Z,32.83
2019-02-14T17:14:24.102Z,36.80
2019-02-14T17:16:54.307Z,41.03
2019-02-14T17:19:24.629Z,43.47
2019-02-14T17:21:54.813Z,65.30
2019-02-14T17:24:25.943Z,66.83
2019-02-14T17:26:56.620Z,64.43
2019-02-14T17:29:26.815Z,62.77
2019-02-14T17:31:56.965Z,56.33
2019-02-14T17:34:27.213Z,53.47
2019-02-14T17:36:57.350Z,42.20
2019-02-14T17:39:27.656Z,35.13
2019-02-14T17:41:57.742Z,35.23
2019-02-14T17:44:27.899Z,34.37
2019-02-14T17:46:58.095Z,32.93
2019-02-14T17:49:28.246Z,29.07
2019-02-14T17:51:58.457Z,28.77
2019-02-14T17:54:28.491Z,25.80
2019-02-14T17:56:58.722Z,26.30
2019-02-14T17:59:28.885Z,29.37
2019-02-14T18:01:58.999Z,32.73
2019-02-14T18:04:29.237Z,38.23
2019-02-14T18:06:59.448Z,38.33
2019-02-14T18:09:30.783Z,39.93
2019-02-14T18:12:00.979Z,57.10
2019-02-14T18:14:31.055Z,109.70
2019-02-14T18:17:01.194Z,45.00
2019-02-14T18:19:32.334Z,71.53
2019-02-14T18:22:02.403Z,46.40
2019-02-14T18:24:32.614Z,61.00
2019-02-14T18:27:02.882Z,59.63
2019-02-14T18:29:32.958Z,95.67
2019-02-14T18:32:03.402Z,74.40
2019-02-14T18:34:33.570Z,57.30
2019-02-14T18:37:03.657Z,43.30
2019-02-14T18:39:33.726Z,40.63
2019-02-14T18:42:04.109Z,38.57
2019-02-14T18:44:34.210Z,38.10
2019-02-14T18:47:04.374Z,35.90
2019-02-14T18:49:34.538Z,37.33
2019-02-14T18:52:04.718Z,40.33
2019-02-14T18:54:34.913Z,40.17
2019-02-14T18:57:05.069Z,39.77
2019-02-14T18:59:35.375Z,41.43
2019-02-14T19:02:05.485Z,39.47
2019-02-14T19:04:35.738Z,43.43
2019-02-14T19:07:05.991Z,45.80
2019-02-14T19:09:36.189Z,54.70
2019-02-14T19:12:07.535Z,45.73
2019-02-14T19:14:37.710Z,42.13
2019-02-14T19:17:08.021Z,39.60
2019-02-14T19:19:38.353Z,39.70
2019-02-14T19:22:08.473Z,38.10
2019-02-14T19:24:38.620Z,41.07
2019-02-14T19:27:08.854Z,44.17
2019-02-14T19:29:39.101Z,43.63
2019-02-14T19:32:09.283Z,45.30
2019-02-14T19:34:39.393Z,43.77
2019-02-14T19:37:10.856Z,42.47
2019-02-14T19:39:41.348Z,52.90
2019-02-14T19:42:11.786Z,44.30
2019-02-14T19:44:42.157Z,41.87
2019-02-14T19:47:12.302Z,43.30
2019-02-14T19:49:42.529Z,48.83
2019-02-14T19:52:12.750Z,50.37
2019-02-14T19:54:42.975Z,46.37
2019-02-14T19:57:13.304Z,41.73
2019-02-14T19:59:43.708Z,45.53
2019-02-14T20:02:13.916Z,39.97
2019-02-14T20:04:44.102Z,46.30
2019-02-14T20:07:14.473Z,43.90
2019-02-14T20:09:45.583Z,43.83
2019-02-14T20:12:15.759Z,46.53
2019-02-14T20:14:46.036Z,154.47
2019-02-14T20:17:16.183Z,41.50
2019-02-14T20:19:46.299Z,38.80
2019-02-14T20:22:16.501Z,36.67
2019-02-14T20:24:46.702Z,35.20
2019-02-14T20:27:17.710Z,32.47
2019-02-14T20:29:47.988Z,32.07
2019-02-14T20:32:18.314Z,32.33
2019-02-14T20:34:48.890Z,33.33
2019-02-14T20:37:19.278Z,32.73
2019-02-14T20:39:49.670Z,35.63
2019-02-14T20:42:20.114Z,32.17
2019-02-14T20:44:50.465Z,30.23
2019-02-14T20:47:21.106Z,29.13
2019-02-14T20:49:51.591Z,33.60
2019-02-14T20:52:22.018Z,32.17
2019-02-14T20:54:53.410Z,45.63
2019-02-14T20:57:23.738Z,62.37
2019-02-14T20:59:54.024Z,43.40
2019-02-14T21:02:24.417Z,44.33
2019-02-14T21:04:54.946Z,39.20
2019-02-14T21:07:25.181Z,34.57
2019-02-14T21:09:56.637Z,34.63
2019-02-14T21:12:26.952Z,40.17
2019-02-14T21:14:57.202Z,37.07
2019-02-14T21:17:27.373Z,32.07
2019-02-14T21:19:57.554Z,30.07
2019-02-14T21:22:27.733Z,32.03
2019-02-14T21:24:58.018Z,34.37
2019-02-14T21:27:28.373Z,35.60
2019-02-14T21:29:58.526Z,36.73
2019-02-14T21:32:28.874Z,33.80
2019-02-14T21:34:59.485Z,33.23
2019-02-14T21:37:29.603Z,36.87
2019-02-14T21:39:59.772Z,37.50
2019-02-14T21:42:30.379Z,35.03
2019-02-14T21:45:01.784Z,35.73
2019-02-14T21:47:33.354Z,34.43
2019-02-14T21:50:03.654Z,34.17
2019-02-14T21:52:34.077Z,34.80
2019-02-14T21:55:04.690Z,34.30
2019-02-14T21:57:34.970Z,34.60
2019-02-14T22:00:07.526Z,34.57
2019-02-14T22:02:38.196Z,32.57
2019-02-14T22:05:09.073Z,30.63
2019-02-14T22:07:39.604Z,28.83
2019-02-14T22:10:10.490Z,30.60
2019-02-14T22:12:42.697Z,30.87
2019-02-14T22:15:14.366Z,32.30
2019-02-14T22:17:44.697Z,29.87
2019-02-14T22:20:15.193Z,28.97
2019-02-14T22:22:45.378Z,27.50
2019-02-14T22:25:15.587Z,26.67
2019-02-14T22:27:45.929Z,26.73
2019-02-14T22:30:16.437Z,26.63
2019-02-14T22:32:46.914Z,25.30
2019-02-14T22:35:17.302Z,26.30
2019-02-14T22:37:47.563Z,25.83
2019-02-14T22:40:18.547Z,24.33
2019-02-14T22:42:48.612Z,23.93
2019-02-14T22:45:18.659Z,24.83
2019-02-14T22:47:48.756Z,24.40
2019-02-14T22:50:19.310Z,24.47
2019-02-14T22:52:49.510Z,26.33
2019-02-14T22:55:19.670Z,28.00
2019-02-14T22:57:49.830Z,28.50
2019-02-14T23:00:30.779Z,27.67
2019-02-14T23:03:02.578Z,27.13
2019-02-14T23:05:33.657Z,27.60
2019-02-14T23:08:04.184Z,26.87
2019-02-14T23:10:34.405Z,27.27
2019-02-14T23:13:04.650Z,27.63
2019-02-14T23:15:34.785Z,29.40
2019-02-14T23:18:05.217Z,26.57
2019-02-14T23:20:35.353Z,25.43
2019-02-14T23:23:05.527Z,26.47
2019-02-14T23:25:35.595Z,29.67
2019-02-14T23:28:05.933Z,29.40
2019-02-14T23:30:36.152Z,29.50
2019-02-14T23:33:06.445Z,28.70
2019-02-14T23:35:36.538Z,28.63
2019-02-14T23:38:06.566Z,29.57
2019-02-14T23:40:36.754Z,29.37
2019-02-14T23:43:07.296Z,28.07
2019-02-14T23:45:37.700Z,26.93
2019-02-14T23:48:07.758Z,29.40
2019-02-14T23:50:38.093Z,29.37
2019-02-14T23:53:09.199Z,28.50
2019-02-14T23:55:39.308Z,32.23
2019-02-14T23:58:09.434Z,34.63
